sensor_id;sensor_type;location;lat;lon;timestamp;pressure;altitude;pressure_sealevel;temperature;humidity
64853;BME280;56050;55.558;-4.644;2023-03-04T00:01:18;103406.66;;;7.87;54.05
64853;BME280;56050;55.558;-4.644;2023-03-04T00:03:44;103410.13;;;7.87;53.89
64853;BME280;56050;55.558;-4.644;2023-03-04T00:06:09;103404.75;;;7.87;53.91
64853;BME280;56050;55.558;-4.644;2023-03-04T00:08:34;103413.72;;;7.83;54.07
64853;BME280;56050;55.558;-4.644;2023-03-04T00:11:00;103409.25;;;7.78;54.02
64853;BME280;56050;55.558;-4.644;2023-03-04T00:13:25;103411.44;;;7.76;54.16
64853;BME280;56050;55.558;-4.644;2023-03-04T00:15:50;103406.69;;;7.73;54.13
64853;BME280;56050;55.558;-4.644;2023-03-04T00:18:16;103403.22;;;7.73;54.05
64853;BME280;56050;55.558;-4.644;2023-03-04T00:20:42;103405.56;;;7.74;54.07
64853;BME280;56050;55.558;-4.644;2023-03-04T00:23:07;103407.78;;;7.72;54.13
64853;BME280;56050;55.558;-4.644;2023-03-04T00:25:32;103405.38;;;7.70;54.21
64853;BME280;56050;55.558;-4.644;2023-03-04T00:27:58;103406.19;;;7.71;54.22
64853;BME280;56050;55.558;-4.644;2023-03-04T00:30:24;103405.91;;;7.73;54.20
64853;BME280;56050;55.558;-4.644;2023-03-04T00:32:49;103403.50;;;7.71;54.25
64853;BME280;56050;55.558;-4.644;2023-03-04T00:35:15;103398.44;;;7.69;54.15
64853;BME280;56050;55.558;-4.644;2023-03-04T00:37:40;103393.38;;;7.68;54.29
64853;BME280;56050;55.558;-4.644;2023-03-04T00:40:07;103394.16;;;7.68;54.18
64853;BME280;56050;55.558;-4.644;2023-03-04T00:42:32;103388.50;;;7.70;54.26
64853;BME280;56050;55.558;-4.644;2023-03-04T00:44:58;103391.38;;;7.74;54.30
64853;BME280;56050;55.558;-4.644;2023-03-04T00:47:23;103389.97;;;7.76;54.25
64853;BME280;56050;55.558;-4.644;2023-03-04T00:49:48;103394.25;;;7.77;54.21
64853;BME280;56050;55.558;-4.644;2023-03-04T00:52:14;103389.97;;;7.76;54.10
64853;BME280;56050;55.558;-4.644;2023-03-04T00:54:39;103389.47;;;7.74;54.27
64853;BME280;56050;55.558;-4.644;2023-03-04T00:57:05;103391.19;;;7.70;54.21
64853;BME280;56050;55.558;-4.644;2023-03-04T00:59:30;103393.47;;;7.63;54.38
64853;BME280;56050;55.558;-4.644;2023-03-04T01:01:55;103387.41;;;7.57;54.38
64853;BME280;56050;55.558;-4.644;2023-03-04T01:04:21;103381.25;;;7.57;54.47
64853;BME280;56050;55.558;-4.644;2023-03-04T01:06:46;103375.88;;;7.57;54.48
64853;BME280;56050;55.558;-4.644;2023-03-04T01:09:11;103374.22;;;7.61;54.38
64853;BME280;56050;55.558;-4.644;2023-03-04T01:11:37;103376.56;;;7.62;54.41
64853;BME280;56050;55.558;-4.644;2023-03-04T01:14:02;103372.31;;;7.61;54.47
64853;BME280;56050;55.558;-4.644;2023-03-04T01:16:28;103373.13;;;7.62;54.24
64853;BME280;56050;55.558;-4.644;2023-03-04T01:18:53;103372.00;;;7.63;54.38
64853;BME280;56050;55.558;-4.644;2023-03-04T01:21:18;103369.34;;;7.63;54.49
64853;BME280;56050;55.558;-4.644;2023-03-04T01:23:44;103370.44;;;7.62;54.26
64853;BME280;56050;55.558;-4.644;2023-03-04T01:26:09;103369.44;;;7.58;54.11
64853;BME280;56050;55.558;-4.644;2023-03-04T01:28:34;103366.66;;;7.49;54.33
64853;BME280;56050;55.558;-4.644;2023-03-04T01:31:01;103358.53;;;7.41;54.43
64853;BME280;56050;55.558;-4.644;2023-03-04T01:33:27;103362.41;;;7.35;54.68
64853;BME280;56050;55.558;-4.644;2023-03-04T01:35:52;103369.16;;;7.32;54.60
64853;BME280;56050;55.558;-4.644;2023-03-04T01:38:18;103371.34;;;7.30;54.92
64853;BME280;56050;55.558;-4.644;2023-03-04T01:40:43;103362.81;;;7.28;54.96
64853;BME280;56050;55.558;-4.644;2023-03-04T01:43:15;103367.38;;;7.28;54.99
64853;BME280;56050;55.558;-4.644;2023-03-04T01:45:44;103370.38;;;7.26;54.95
64853;BME280;56050;55.558;-4.644;2023-03-04T01:48:12;103362.94;;;7.23;55.07
64853;BME280;56050;55.558;-4.644;2023-03-04T01:50:40;103367.97;;;7.25;54.95
64853;BME280;56050;55.558;-4.644;2023-03-04T01:53:06;103370.06;;;7.28;54.99
64853;BME280;56050;55.558;-4.644;2023-03-04T01:55:38;103355.88;;;7.27;54.92
64853;BME280;56050;55.558;-4.644;2023-03-04T01:58:04;103366.38;;;7.24;55.00
64853;BME280;56050;55.558;-4.644;2023-03-04T02:00:31;103359.56;;;7.18;54.98
64853;BME280;56050;55.558;-4.644;2023-03-04T02:03:10;103359.16;;;7.10;55.19
64853;BME280;56050;55.558;-4.644;2023-03-04T02:05:41;103358.06;;;6.98;55.42
64853;BME280;56050;55.558;-4.644;2023-03-04T02:08:08;103350.19;;;6.88;55.70
64853;BME280;56050;55.558;-4.644;2023-03-04T02:10:34;103349.22;;;6.84;55.85
64853;BME280;56050;55.558;-4.644;2023-03-04T02:12:59;103350.88;;;6.80;55.82
64853;BME280;56050;55.558;-4.644;2023-03-04T02:15:25;103346.63;;;6.79;55.81
64853;BME280;56050;55.558;-4.644;2023-03-04T02:17:51;103352.16;;;6.82;56.01
64853;BME280;56050;55.558;-4.644;2023-03-04T02:20:44;103346.75;;;6.87;55.67
64853;BME280;56050;55.558;-4.644;2023-03-04T02:23:42;103347.22;;;6.89;55.72
64853;BME280;56050;55.558;-4.644;2023-03-04T02:26:18;103345.94;;;6.87;55.84
64853;BME280;56050;55.558;-4.644;2023-03-04T02:28:45;103339.28;;;6.84;55.75
64853;BME280;56050;55.558;-4.644;2023-03-04T02:33:53;103359.63;;;6.85;55.87
64853;BME280;56050;55.558;-4.644;2023-03-04T02:36:19;103341.66;;;6.86;55.79
64853;BME280;56050;55.558;-4.644;2023-03-04T02:38:45;103348.63;;;6.87;55.89
64853;BME280;56050;55.558;-4.644;2023-03-04T02:41:11;103349.69;;;6.86;55.90
64853;BME280;56050;55.558;-4.644;2023-03-04T02:43:38;103343.84;;;6.84;55.83
64853;BME280;56050;55.558;-4.644;2023-03-04T02:46:03;103343.25;;;6.87;55.98
64853;BME280;56050;55.558;-4.644;2023-03-04T02:48:30;103336.78;;;6.88;55.68
64853;BME280;56050;55.558;-4.644;2023-03-04T02:50:56;103340.28;;;6.88;55.87
64853;BME280;56050;55.558;-4.644;2023-03-04T02:53:22;103340.28;;;6.88;55.65
64853;BME280;56050;55.558;-4.644;2023-03-04T02:55:49;103331.44;;;6.88;55.78
64853;BME280;56050;55.558;-4.644;2023-03-04T02:58:15;103330.84;;;6.91;55.85
64853;BME280;56050;55.558;-4.644;2023-03-04T03:00:40;103335.41;;;6.90;56.00
64853;BME280;56050;55.558;-4.644;2023-03-04T03:03:06;103331.97;;;6.90;56.18
64853;BME280;56050;55.558;-4.644;2023-03-04T03:05:33;103331.75;;;6.86;56.19
64853;BME280;56050;55.558;-4.644;2023-03-04T03:07:58;103327.78;;;6.84;56.30
64853;BME280;56050;55.558;-4.644;2023-03-04T03:10:24;103325.00;;;6.89;56.35
64853;BME280;56050;55.558;-4.644;2023-03-04T03:12:49;103327.09;;;6.92;56.17
64853;BME280;56050;55.558;-4.644;2023-03-04T03:15:14;103328.38;;;6.94;56.24
64853;BME280;56050;55.558;-4.644;2023-03-04T03:17:40;103321.63;;;6.97;55.88
64853;BME280;56050;55.558;-4.644;2023-03-04T03:20:06;103331.44;;;7.01;55.85
64853;BME280;56050;55.558;-4.644;2023-03-04T03:22:31;103333.03;;;7.02;55.90
64853;BME280;56050;55.558;-4.644;2023-03-04T03:24:57;103332.75;;;7.04;55.91
64853;BME280;56050;55.558;-4.644;2023-03-04T03:27:22;103336.72;;;7.06;55.81
64853;BME280;56050;55.558;-4.644;2023-03-04T03:29:47;103330.16;;;7.13;55.66
64853;BME280;56050;55.558;-4.644;2023-03-04T03:32:13;103321.22;;;7.17;55.61
64853;BME280;56050;55.558;-4.644;2023-03-04T03:34:38;103327.28;;;7.23;55.39
64853;BME280;56050;55.558;-4.644;2023-03-04T03:37:04;103322.13;;;7.26;55.45
64853;BME280;56050;55.558;-4.644;2023-03-04T03:39:29;103324.59;;;7.23;55.27
64853;BME280;56050;55.558;-4.644;2023-03-04T03:41:54;103315.97;;;7.12;55.67
64853;BME280;56050;55.558;-4.644;2023-03-04T03:44:19;103320.53;;;7.12;55.58
64853;BME280;56050;55.558;-4.644;2023-03-04T03:46:45;103323.72;;;7.14;55.70
64853;BME280;56050;55.558;-4.644;2023-03-04T03:49:11;103324.03;;;7.12;55.79
64853;BME280;56050;55.558;-4.644;2023-03-04T03:51:37;103310.31;;;7.14;55.81
64853;BME280;56050;55.558;-4.644;2023-03-04T03:54:02;103310.31;;;7.14;55.62
64853;BME280;56050;55.558;-4.644;2023-03-04T03:56:27;103313.28;;;7.12;55.62
64853;BME280;56050;55.558;-4.644;2023-03-04T03:58:53;103318.94;;;7.10;55.56
64853;BME280;56050;55.558;-4.644;2023-03-04T04:01:18;103310.09;;;7.10;55.65
64853;BME280;56050;55.558;-4.644;2023-03-04T04:03:44;103314.06;;;7.13;55.72
64853;BME280;56050;55.558;-4.644;2023-03-04T04:06:09;103314.59;;;7.15;55.69
64853;BME280;56050;55.558;-4.644;2023-03-04T04:08:34;103313.19;;;7.17;55.50
64853;BME280;56050;55.558;-4.644;2023-03-04T04:11:00;103310.72;;;7.21;55.65
64853;BME280;56050;55.558;-4.644;2023-03-04T04:13:25;103314.38;;;7.25;55.52
64853;BME280;56050;55.558;-4.644;2023-03-04T04:15:51;103305.72;;;7.28;55.49
64853;BME280;56050;55.558;-4.644;2023-03-04T04:18:17;103306.22;;;7.30;55.37
64853;BME280;56050;55.558;-4.644;2023-03-04T04:20:42;103301.06;;;7.33;55.42
64853;BME280;56050;55.558;-4.644;2023-03-04T04:23:08;103313.84;;;7.36;55.33
64853;BME280;56050;55.558;-4.644;2023-03-04T04:25:33;103308.50;;;7.36;55.34
64853;BME280;56050;55.558;-4.644;2023-03-04T04:27:58;103306.63;;;7.37;55.18
64853;BME280;56050;55.558;-4.644;2023-03-04T04:30:24;103311.38;;;7.40;55.27
64853;BME280;56050;55.558;-4.644;2023-03-04T04:32:49;103299.53;;;7.41;55.23
64853;BME280;56050;55.558;-4.644;2023-03-04T04:35:15;103299.53;;;7.41;55.46
64853;BME280;56050;55.558;-4.644;2023-03-04T04:37:40;103293.09;;;7.42;55.27
64853;BME280;56050;55.558;-4.644;2023-03-04T04:40:06;103294.38;;;7.44;55.25
64853;BME280;56050;55.558;-4.644;2023-03-04T04:42:32;103299.41;;;7.46;55.22
64853;BME280;56050;55.558;-4.644;2023-03-04T04:44:58;103301.50;;;7.49;55.30
64853;BME280;56050;55.558;-4.644;2023-03-04T04:47:23;103302.31;;;7.49;55.13
64853;BME280;56050;55.558;-4.644;2023-03-04T04:49:48;103300.72;;;7.48;55.22
64853;BME280;56050;55.558;-4.644;2023-03-04T04:52:14;103304.19;;;7.49;55.23
64853;BME280;56050;55.558;-4.644;2023-03-04T04:54:39;103316.31;;;7.46;55.36
64853;BME280;56050;55.558;-4.644;2023-03-04T04:57:04;103309.47;;;7.40;55.37
64853;BME280;56050;55.558;-4.644;2023-03-04T04:59:30;103309.91;;;7.34;55.50
64853;BME280;56050;55.558;-4.644;2023-03-04T05:01:55;103309.50;;;7.27;55.52
64853;BME280;56050;55.558;-4.644;2023-03-04T05:04:21;103307.41;;;7.24;55.59
64853;BME280;56050;55.558;-4.644;2023-03-04T05:06:46;103311.78;;;7.20;55.67
64853;BME280;56050;55.558;-4.644;2023-03-04T05:09:13;103308.91;;;7.16;55.83
64853;BME280;56050;55.558;-4.644;2023-03-04T05:11:38;103306.03;;;7.13;55.77
64853;BME280;56050;55.558;-4.644;2023-03-04T05:14:04;103302.38;;;7.08;55.89
64853;BME280;56050;55.558;-4.644;2023-03-04T05:16:29;103307.41;;;7.10;56.07
64853;BME280;56050;55.558;-4.644;2023-03-04T05:18:54;103305.25;;;7.12;55.91
64853;BME280;56050;55.558;-4.644;2023-03-04T05:21:20;103303.34;;;7.13;55.75
64853;BME280;56050;55.558;-4.644;2023-03-04T05:23:45;103304.47;;;7.12;55.86
64853;BME280;56050;55.558;-4.644;2023-03-04T05:26:12;103301.78;;;7.12;56.04
64853;BME280;56050;55.558;-4.644;2023-03-04T05:28:37;103302.56;;;7.12;55.80
64853;BME280;56050;55.558;-4.644;2023-03-04T05:31:03;103304.66;;;7.15;55.81
64853;BME280;56050;55.558;-4.644;2023-03-04T05:33:28;103304.34;;;7.17;55.84
64853;BME280;56050;55.558;-4.644;2023-03-04T05:35:54;103297.91;;;7.18;55.78
64853;BME280;56050;55.558;-4.644;2023-03-04T05:38:20;103294.22;;;7.14;55.65
64853;BME280;56050;55.558;-4.644;2023-03-04T05:40:46;103298.09;;;7.07;55.84
64853;BME280;56050;55.558;-4.644;2023-03-04T05:43:12;103293.44;;;6.99;55.77
64853;BME280;56050;55.558;-4.644;2023-03-04T05:45:38;103290.53;;;6.96;55.95
64853;BME280;56050;55.558;-4.644;2023-03-04T05:48:04;103290.84;;;6.94;55.96
64853;BME280;56050;55.558;-4.644;2023-03-04T05:50:30;103294.94;;;6.92;56.08
64853;BME280;56050;55.558;-4.644;2023-03-04T05:52:56;103282.34;;;6.92;56.08
64853;BME280;56050;55.558;-4.644;2023-03-04T05:55:21;103287.97;;;6.91;56.16
64853;BME280;56050;55.558;-4.644;2023-03-04T05:57:47;103284.50;;;6.90;56.18
64853;BME280;56050;55.558;-4.644;2023-03-04T06:00:13;103287.19;;;6.90;56.06
64853;BME280;56050;55.558;-4.644;2023-03-04T06:02:40;103282.94;;;6.89;56.03
64853;BME280;56050;55.558;-4.644;2023-03-04T06:05:07;103282.94;;;6.89;56.21
64853;BME280;56050;55.558;-4.644;2023-03-04T06:07:32;103280.84;;;6.86;56.11
64853;BME280;56050;55.558;-4.644;2023-03-04T06:09:58;103276.38;;;6.82;56.06
64853;BME280;56050;55.558;-4.644;2023-03-04T06:12:23;103278.38;;;6.76;56.27
64853;BME280;56050;55.558;-4.644;2023-03-04T06:14:49;103270.41;;;6.71;56.16
64853;BME280;56050;55.558;-4.644;2023-03-04T06:17:15;103273.19;;;6.66;55.79
64853;BME280;56050;55.558;-4.644;2023-03-04T06:19:40;103275.47;;;6.59;56.12
64853;BME280;56050;55.558;-4.644;2023-03-04T06:22:09;103273.66;;;6.55;56.02
64853;BME280;56050;55.558;-4.644;2023-03-04T06:24:35;103276.16;;;6.51;56.05
64853;BME280;56050;55.558;-4.644;2023-03-04T06:27:00;103271.69;;;6.46;55.88
64853;BME280;56050;55.558;-4.644;2023-03-04T06:29:26;103267.22;;;6.42;56.04
64853;BME280;56050;55.558;-4.644;2023-03-04T06:31:52;103271.28;;;6.39;56.13
64853;BME280;56050;55.558;-4.644;2023-03-04T06:34:17;103268.81;;;6.43;56.44
64853;BME280;56050;55.558;-4.644;2023-03-04T06:36:42;103273.28;;;6.47;56.20
64853;BME280;56050;55.558;-4.644;2023-03-04T06:39:08;103266.03;;;6.48;56.16
64853;BME280;56050;55.558;-4.644;2023-03-04T06:41:34;103271.09;;;6.49;56.09
64853;BME280;56050;55.558;-4.644;2023-03-04T06:44:01;103267.59;;;6.49;55.96
64853;BME280;56050;55.558;-4.644;2023-03-04T06:46:26;103272.38;;;6.52;56.01
64853;BME280;56050;55.558;-4.644;2023-03-04T06:48:52;103274.78;;;6.54;56.03
64853;BME280;56050;55.558;-4.644;2023-03-04T06:51:17;103281.22;;;6.53;55.69
64853;BME280;56050;55.558;-4.644;2023-03-04T06:53:43;103276.44;;;6.49;55.78
64853;BME280;56050;55.558;-4.644;2023-03-04T06:56:10;103280.50;;;6.47;55.59
64853;BME280;56050;55.558;-4.644;2023-03-04T06:58:37;103278.41;;;6.44;55.73
64853;BME280;56050;55.558;-4.644;2023-03-04T07:01:12;103283.78;;;6.44;55.59
64853;BME280;56050;55.558;-4.644;2023-03-04T07:03:38;103275.75;;;6.44;55.95
64853;BME280;56050;55.558;-4.644;2023-03-04T07:06:04;103280.50;;;6.47;55.91
64853;BME280;56050;55.558;-4.644;2023-03-04T07:08:29;103283.88;;;6.53;55.86
64853;BME280;56050;55.558;-4.644;2023-03-04T07:10:54;103287.75;;;6.60;55.92
64853;BME280;56050;55.558;-4.644;2023-03-04T07:13:20;103290.38;;;6.65;55.48
64853;BME280;56050;55.558;-4.644;2023-03-04T07:15:45;103290.06;;;6.67;55.58
64853;BME280;56050;55.558;-4.644;2023-03-04T07:18:10;103292.63;;;6.72;55.66
64853;BME280;56050;55.558;-4.644;2023-03-04T07:20:36;103294.63;;;6.80;55.44
64853;BME280;56050;55.558;-4.644;2023-03-04T07:23:01;103297.22;;;6.85;55.40
64853;BME280;56050;55.558;-4.644;2023-03-04T07:25:27;103295.84;;;6.87;55.30
64853;BME280;56050;55.558;-4.644;2023-03-04T07:27:52;103302.16;;;6.91;55.41
64853;BME280;56050;55.558;-4.644;2023-03-04T07:30:18;103310.69;;;6.93;55.33
64853;BME280;56050;55.558;-4.644;2023-03-04T07:32:43;103313.38;;;6.93;55.31
64853;BME280;56050;55.558;-4.644;2023-03-04T07:35:08;103314.50;;;6.92;55.37
64853;BME280;56050;55.558;-4.644;2023-03-04T07:37:34;103308.13;;;6.88;55.26
64853;BME280;56050;55.558;-4.644;2023-03-04T07:39:59;103310.00;;;6.88;55.40
64853;BME280;56050;55.558;-4.644;2023-03-04T07:42:25;103313.78;;;6.87;55.27
64853;BME280;56050;55.558;-4.644;2023-03-04T07:44:50;103320.03;;;6.82;55.33
64853;BME280;56050;55.558;-4.644;2023-03-04T07:47:15;103318.25;;;6.78;55.60
64853;BME280;56050;55.558;-4.644;2023-03-04T07:49:41;103319.94;;;6.74;55.62
64853;BME280;56050;55.558;-4.644;2023-03-04T07:52:06;103317.53;;;6.72;55.74
64853;BME280;56050;55.558;-4.644;2023-03-04T07:54:33;103326.66;;;6.71;55.65
64853;BME280;56050;55.558;-4.644;2023-03-04T07:56:58;103330.94;;;6.72;55.79
64853;BME280;56050;55.558;-4.644;2023-03-04T07:59:23;103327.66;;;6.75;55.73
64853;BME280;56050;55.558;-4.644;2023-03-04T08:01:49;103322.00;;;6.77;55.68
64853;BME280;56050;55.558;-4.644;2023-03-04T08:04:14;103322.53;;;6.79;55.61
64853;BME280;56050;55.558;-4.644;2023-03-04T08:06:40;103316.06;;;6.80;55.77
64853;BME280;56050;55.558;-4.644;2023-03-04T08:09:07;103321.13;;;6.81;55.68
64853;BME280;56050;55.558;-4.644;2023-03-04T08:11:34;103325.19;;;6.79;55.04
64853;BME280;56050;55.558;-4.644;2023-03-04T08:14:02;103322.41;;;6.70;55.50
64853;BME280;56050;55.558;-4.644;2023-03-04T08:16:28;103318.63;;;6.71;55.58
64853;BME280;56050;55.558;-4.644;2023-03-04T08:18:54;103319.13;;;6.73;55.62
64853;BME280;56050;55.558;-4.644;2023-03-04T08:21:21;103320.13;;;6.77;55.57
64853;BME280;56050;55.558;-4.644;2023-03-04T08:23:47;103315.28;;;6.79;55.52
64853;BME280;56050;55.558;-4.644;2023-03-04T08:26:17;103315.28;;;6.79;55.33
64853;BME280;56050;55.558;-4.644;2023-03-04T08:28:43;103317.66;;;6.81;55.49
64853;BME280;56050;55.558;-4.644;2023-03-04T08:31:12;103321.34;;;6.85;55.47
64853;BME280;56050;55.558;-4.644;2023-03-04T08:33:37;103319.31;;;6.90;55.46
64853;BME280;56050;55.558;-4.644;2023-03-04T08:36:03;103312.28;;;6.94;55.38
64853;BME280;56050;55.558;-4.644;2023-03-04T08:38:28;103312.19;;;6.99;55.47
64853;BME280;56050;55.558;-4.644;2023-03-04T08:40:56;103311.59;;;7.02;55.22
64853;BME280;56050;55.558;-4.644;2023-03-04T08:43:21;103320.66;;;7.06;55.26
64853;BME280;56050;55.558;-4.644;2023-03-04T08:45:47;103311.38;;;7.13;55.13
64853;BME280;56050;55.558;-4.644;2023-03-04T08:48:13;103316.47;;;7.14;55.25
64853;BME280;56050;55.558;-4.644;2023-03-04T08:50:38;103319.63;;;7.16;55.08
64853;BME280;56050;55.558;-4.644;2023-03-04T08:53:03;103316.66;;;7.18;55.15
64853;BME280;56050;55.558;-4.644;2023-03-04T08:55:29;103314.47;;;7.20;55.00
64853;BME280;56050;55.558;-4.644;2023-03-04T08:57:54;103320.91;;;7.19;55.13
64853;BME280;56050;55.558;-4.644;2023-03-04T09:00:20;103321.44;;;7.21;55.05
64853;BME280;56050;55.558;-4.644;2023-03-04T09:02:46;103321.91;;;7.23;55.06
64853;BME280;56050;55.558;-4.644;2023-03-04T09:05:11;103316.75;;;7.26;55.12
64853;BME280;56050;55.558;-4.644;2023-03-04T09:07:37;103323.09;;;7.30;55.04
64853;BME280;56050;55.558;-4.644;2023-03-04T09:10:03;103323.31;;;7.34;54.89
64853;BME280;56050;55.558;-4.644;2023-03-04T09:12:28;103315.13;;;7.39;54.84
64853;BME280;56050;55.558;-4.644;2023-03-04T09:14:54;103319.09;;;7.41;54.85
64853;BME280;56050;55.558;-4.644;2023-03-04T09:17:19;103319.78;;;7.47;54.78
64853;BME280;56050;55.558;-4.644;2023-03-04T09:19:44;103316.19;;;7.51;54.85
64853;BME280;56050;55.558;-4.644;2023-03-04T09:22:10;103317.19;;;7.55;54.86
64853;BME280;56050;55.558;-4.644;2023-03-04T09:24:35;103315.78;;;7.58;54.81
64853;BME280;56050;55.558;-4.644;2023-03-04T09:27:00;103314.09;;;7.62;54.75
64853;BME280;56050;55.558;-4.644;2023-03-04T09:29:26;103314.28;;;7.65;54.67
64853;BME280;56050;55.558;-4.644;2023-03-04T09:31:51;103305.44;;;7.65;54.56
64853;BME280;56050;55.558;-4.644;2023-03-04T09:34:17;103310.63;;;7.61;54.49
64853;BME280;56050;55.558;-4.644;2023-03-04T09:36:42;103309.84;;;7.61;54.55
64853;BME280;56050;55.558;-4.644;2023-03-04T09:39:07;103309.22;;;7.64;54.72
64853;BME280;56050;55.558;-4.644;2023-03-04T09:41:39;103307.81;;;7.66;54.37
64853;BME280;56050;55.558;-4.644;2023-03-04T09:44:20;103303.88;;;7.64;54.69
64853;BME280;56050;55.558;-4.644;2023-03-04T09:46:47;103300.75;;;7.70;54.59
64853;BME280;56050;55.558;-4.644;2023-03-04T09:49:15;103304.00;;;7.81;54.68
64853;BME280;56050;55.558;-4.644;2023-03-04T09:51:51;103308.34;;;7.91;54.56
64853;BME280;56050;55.558;-4.644;2023-03-04T10:05:01;103292.53;;;8.11;54.25
64853;BME280;56050;55.558;-4.644;2023-03-04T10:07:39;103297.91;;;8.11;54.31
64853;BME280;56050;55.558;-4.644;2023-03-04T10:10:15;103289.88;;;8.11;54.19
64853;BME280;56050;55.558;-4.644;2023-03-04T10:12:46;103294.13;;;8.12;54.19
64853;BME280;56050;55.558;-4.644;2023-03-04T10:18:05;103291.44;;;8.12;54.21
64853;BME280;56050;55.558;-4.644;2023-03-04T10:20:50;103301.56;;;8.15;53.97
64853;BME280;56050;55.558;-4.644;2023-03-04T10:23:20;103297.78;;;8.16;54.21
64853;BME280;56050;55.558;-4.644;2023-03-04T10:25:46;103299.25;;;8.22;54.27
64853;BME280;56050;55.558;-4.644;2023-03-04T10:28:17;103292.66;;;8.28;53.91
64853;BME280;56050;55.558;-4.644;2023-03-04T10:33:34;103292.47;;;8.47;53.79
64853;BME280;56050;55.558;-4.644;2023-03-04T10:36:31;103283.47;;;8.52;53.22
64853;BME280;56050;55.558;-4.644;2023-03-04T10:39:08;103284.22;;;8.44;52.95
64853;BME280;56050;55.558;-4.644;2023-03-04T10:41:35;103284.66;;;8.37;53.25
64853;BME280;56050;55.558;-4.644;2023-03-04T10:46:32;103290.56;;;8.48;53.48
64853;BME280;56050;55.558;-4.644;2023-03-04T10:48:58;103289.69;;;8.61;53.37
64853;BME280;56050;55.558;-4.644;2023-03-04T10:51:27;103293.84;;;8.75;53.17
64853;BME280;56050;55.558;-4.644;2023-03-04T10:56:41;103296.94;;;9.00;52.31
64853;BME280;56050;55.558;-4.644;2023-03-04T10:59:29;103293.16;;;9.09;52.26
64853;BME280;56050;55.558;-4.644;2023-03-04T11:01:56;103299.34;;;9.18;52.26
64853;BME280;56050;55.558;-4.644;2023-03-04T11:04:24;103299.66;;;9.25;52.13
64853;BME280;56050;55.558;-4.644;2023-03-04T11:06:51;103288.94;;;9.34;51.05
64853;BME280;56050;55.558;-4.644;2023-03-04T11:09:24;103293.69;;;9.37;51.39
64853;BME280;56050;55.558;-4.644;2023-03-04T11:11:51;103292.25;;;9.39;50.80
64853;BME280;56050;55.558;-4.644;2023-03-04T11:14:27;103297.97;;;9.38;50.95
64853;BME280;56050;55.558;-4.644;2023-03-04T11:17:00;103291.16;;;9.40;51.02
64853;BME280;56050;55.558;-4.644;2023-03-04T11:19:37;103286.44;;;9.46;50.82
64853;BME280;56050;55.558;-4.644;2023-03-04T11:22:03;103285.00;;;9.49;50.41
64853;BME280;56050;55.558;-4.644;2023-03-04T11:24:32;103279.94;;;9.47;50.45
64853;BME280;56050;55.558;-4.644;2023-03-04T11:27:03;103266.16;;;9.40;50.40
64853;BME280;56050;55.558;-4.644;2023-03-04T11:29:42;103268.22;;;9.34;50.78
64853;BME280;56050;55.558;-4.644;2023-03-04T11:32:33;103256.81;;;9.29;50.58
64853;BME280;56050;55.558;-4.644;2023-03-04T11:35:28;103251.25;;;9.25;50.48
64853;BME280;56050;55.558;-4.644;2023-03-04T11:38:06;103249.19;;;9.22;50.84
64853;BME280;56050;55.558;-4.644;2023-03-04T11:40:40;103252.53;;;9.19;50.99
64853;BME280;56050;55.558;-4.644;2023-03-04T11:43:37;103245.91;;;9.17;51.18
64853;BME280;56050;55.558;-4.644;2023-03-04T11:46:18;103243.97;;;9.17;51.15
64853;BME280;56050;55.558;-4.644;2023-03-04T11:56:44;103238.44;;;9.31;51.02
64853;BME280;56050;55.558;-4.644;2023-03-04T12:07:53;103218.69;;;9.35;50.63
64853;BME280;56050;55.558;-4.644;2023-03-04T12:10:48;103216.81;;;9.36;50.85
64853;BME280;56050;55.558;-4.644;2023-03-04T12:18:53;103221.06;;;9.45;50.81
64853;BME280;56050;55.558;-4.644;2023-03-04T12:21:38;103213.31;;;9.53;50.82
64853;BME280;56050;55.558;-4.644;2023-03-04T12:32:32;103210.91;;;9.77;50.70
64853;BME280;56050;55.558;-4.644;2023-03-04T12:35:15;103212.97;;;9.80;50.56
64853;BME280;56050;55.558;-4.644;2023-03-04T12:38:02;103209.13;;;9.81;50.40
64853;BME280;56050;55.558;-4.644;2023-03-04T12:43:25;103195.38;;;9.74;50.18
64853;BME280;56050;55.558;-4.644;2023-03-04T12:49:20;103193.97;;;9.59;50.56
64853;BME280;56050;55.558;-4.644;2023-03-04T12:51:57;103187.97;;;9.62;50.12
64853;BME280;56050;55.558;-4.644;2023-03-04T12:54:33;103186.25;;;9.58;50.48
64853;BME280;56050;55.558;-4.644;2023-03-04T12:59:32;103174.34;;;9.59;50.11
64853;BME280;56050;55.558;-4.644;2023-03-04T13:08:02;103165.81;;;9.57;50.66
64853;BME280;56050;55.558;-4.644;2023-03-04T13:10:30;103166.91;;;9.64;50.50
64853;BME280;56050;55.558;-4.644;2023-03-04T13:12:57;103159.13;;;9.71;50.23
64853;BME280;56050;55.558;-4.644;2023-03-04T13:20:44;103165.88;;;9.86;50.23
64853;BME280;56050;55.558;-4.644;2023-03-04T13:26:26;103154.16;;;9.99;50.08
64853;BME280;56050;55.558;-4.644;2023-03-04T13:28:55;103144.63;;;10.01;50.02
64853;BME280;56050;55.558;-4.644;2023-03-04T13:31:59;103135.44;;;10.02;50.09
64853;BME280;56050;55.558;-4.644;2023-03-04T13:34:44;103128.75;;;10.09;50.11
64853;BME280;56050;55.558;-4.644;2023-03-04T13:37:34;103129.25;;;10.11;49.89
64853;BME280;56050;55.558;-4.644;2023-03-04T13:42:44;103125.91;;;10.14;49.95
64853;BME280;56050;55.558;-4.644;2023-03-04T13:45:36;103126.69;;;10.14;49.81
64853;BME280;56050;55.558;-4.644;2023-03-04T13:48:29;103132.44;;;10.13;49.88
64853;BME280;56050;55.558;-4.644;2023-03-04T13:50:56;103122.72;;;10.12;49.95
64853;BME280;56050;55.558;-4.644;2023-03-04T14:01:28;103116.72;;;10.06;49.99
64853;BME280;56050;55.558;-4.644;2023-03-04T14:04:00;103121.16;;;10.11;49.94
64853;BME280;56050;55.558;-4.644;2023-03-04T14:06:28;103113.38;;;10.09;49.27
64853;BME280;56050;55.558;-4.644;2023-03-04T14:08:54;103107.84;;;10.05;49.72
64853;BME280;56050;55.558;-4.644;2023-03-04T14:11:35;103116.13;;;10.00;49.74
64853;BME280;56050;55.558;-4.644;2023-03-04T14:14:10;103121.03;;;9.98;49.38
64853;BME280;56050;55.558;-4.644;2023-03-04T14:16:48;103122.97;;;9.89;49.50
64853;BME280;56050;55.558;-4.644;2023-03-04T14:19:23;103124.91;;;9.80;49.51
64853;BME280;56050;55.558;-4.644;2023-03-04T14:21:49;103131.59;;;9.74;49.51
64853;BME280;56050;55.558;-4.644;2023-03-04T14:24:17;103129.38;;;9.68;49.50